createdAt,value
2019-04-29T00:00:48.257Z,100881.06
2019-04-29T00:01:53.812Z,100883.39
2019-04-29T00:02:57.637Z,100880.42
2019-04-29T00:04:01.548Z,100885.83
2019-04-29T00:05:06.965Z,100877.80
2019-04-29T00:06:11.317Z,100885.48
2019-04-29T00:07:15.307Z,100877.84
2019-04-29T00:08:19.930Z,100877.48
2019-04-29T00:09:24.366Z,100878.84
2019-04-29T00:10:28.764Z,100876.17
2019-04-29T00:11:32.960Z,100878.88
2019-04-29T00:12:37.113Z,100878.92
2019-04-29T00:13:41.371Z,100880.27
2019-04-29T00:14:50.695Z,100882.55
2019-04-29T00:16:11.359Z,100880.70
2019-04-29T00:17:21.545Z,100876.68
2019-04-29T00:18:35.263Z,100879.42
2019-04-29T00:19:57.494Z,100880.42
2019-04-29T00:21:01.396Z,100880.13
2019-04-29T00:22:05.890Z,100884.37
2019-04-29T00:23:10.518Z,100884.87
2019-04-29T00:24:14.660Z,100884.52
2019-04-29T00:25:18.648Z,100885.83
2019-04-29T00:26:22.647Z,100883.63
2019-04-29T00:27:27.238Z,100879.16
2019-04-29T00:28:31.545Z,100883.20
2019-04-29T00:29:35.781Z,100881.86
2019-04-29T00:30:40.068Z,100882.78
2019-04-29T00:31:44.676Z,100880.97
2019-04-29T00:32:49.148Z,100884.14
2019-04-29T00:33:53.702Z,100882.78
2019-04-29T00:34:57.608Z,100884.17
2019-04-29T00:36:02.016Z,100879.70
2019-04-29T00:37:16.337Z,100877.57
2019-04-29T00:38:48.331Z,100878.45
2019-04-29T00:40:10.022Z,100882.08
2019-04-29T00:41:51.455Z,100883.16
2019-04-29T00:43:05.895Z,100881.89
2019-04-29T00:44:12.024Z,100884.23
2019-04-29T00:45:16.039Z,100884.34
2019-04-29T00:46:20.189Z,100883.03
2019-04-29T00:47:24.625Z,100885.31
2019-04-29T00:48:29.055Z,100889.83
2019-04-29T00:49:33.169Z,100888.90
2019-04-29T00:50:37.239Z,100894.80
2019-04-29T00:51:41.066Z,100898.85
2019-04-29T00:52:45.048Z,100891.28
2019-04-29T00:53:50.734Z,100897.64
2019-04-29T00:55:01.131Z,100897.22
2019-04-29T00:56:06.054Z,100897.68
2019-04-29T00:57:10.033Z,100899.03
2019-04-29T00:58:14.195Z,100902.66
2019-04-29T00:59:18.661Z,100902.19
2019-04-29T01:00:33.384Z,100901.73
2019-04-29T01:01:37.389Z,100905.32
2019-04-29T01:02:41.442Z,100899.49
2019-04-29T01:03:45.775Z,100904.01
2019-04-29T01:04:49.911Z,100906.28
2019-04-29T01:05:54.555Z,100897.25
2019-04-29T01:06:58.939Z,100897.72
2019-04-29T01:08:03.231Z,100904.50
2019-04-29T01:09:11.242Z,100904.11
2019-04-29T01:10:15.980Z,100894.27
2019-04-29T01:11:20.512Z,100899.70
2019-04-29T01:12:24.929Z,100897.05
2019-04-29T01:13:28.927Z,100897.08
2019-04-29T01:14:33.315Z,100897.97
2019-04-29T01:15:37.304Z,100897.08
2019-04-29T01:16:41.214Z,100898.86
2019-04-29T01:17:45.244Z,100901.09
2019-04-29T01:18:50.164Z,100896.16
2019-04-29T01:19:54.042Z,100895.66
2019-04-29T01:20:58.028Z,100891.57
2019-04-29T01:22:01.945Z,100892.95
2019-04-29T01:23:06.191Z,100892.53
2019-04-29T01:24:10.165Z,100893.03
2019-04-29T01:25:14.555Z,100896.16
2019-04-29T01:26:38.911Z,100895.73
2019-04-29T01:27:49.769Z,100899.39
2019-04-29T01:28:54.866Z,100891.82
2019-04-29T01:29:58.992Z,100901.30
2019-04-29T01:31:06.318Z,100898.18
2019-04-29T01:32:10.282Z,100893.63
2019-04-29T01:33:14.504Z,100894.56
2019-04-29T01:34:23.528Z,100899.03
2019-04-29T01:35:27.359Z,100899.06
2019-04-29T01:36:37.403Z,100898.18
2019-04-29T01:37:42.903Z,100894.16
2019-04-29T01:38:48.816Z,100894.66
2019-04-29T01:40:01.154Z,100898.28
2019-04-29T01:41:12.191Z,100889.30
2019-04-29T01:42:22.702Z,100898.31
2019-04-29T01:43:45.947Z,100901.02
2019-04-29T01:44:50.040Z,100895.69
2019-04-29T01:45:54.029Z,100897.92
2019-04-29T01:46:58.329Z,100899.38
2019-04-29T01:48:02.841Z,100903.92
2019-04-29T01:49:07.048Z,100899.48
2019-04-29T01:50:11.475Z,100900.88
2019-04-29T01:51:15.639Z,100903.60
2019-04-29T01:52:19.550Z,100898.30
2019-04-29T01:53:23.375Z,100899.27
2019-04-29T01:54:27.976Z,100905.16
2019-04-29T01:55:32.486Z,100902.52
2019-04-29T01:56:36.316Z,100907.46
2019-04-29T01:57:40.490Z,100904.83
2019-04-29T01:58:45.076Z,100910.75
2019-04-29T01:59:50.076Z,100912.10
2019-04-29T02:00:53.951Z,100911.73
2019-04-29T02:01:58.178Z,100908.61
2019-04-29T02:03:02.645Z,100910.88
2019-04-29T02:04:06.729Z,100906.41
2019-04-29T02:05:11.059Z,100908.25
2019-04-29T02:06:15.288Z,100911.37
2019-04-29T02:07:19.586Z,100914.57
2019-04-29T02:08:23.634Z,100913.75
2019-04-29T02:09:32.781Z,100914.66
2019-04-29T02:10:36.689Z,100910.66
2019-04-29T02:11:40.710Z,100906.64
2019-04-29T02:12:44.697Z,100915.66
2019-04-29T02:13:49.176Z,100909.83
2019-04-29T02:14:53.427Z,100911.18
2019-04-29T02:15:57.930Z,100911.70
2019-04-29T02:17:02.108Z,100913.05
2019-04-29T02:18:06.014Z,100915.33
2019-04-29T02:19:10.338Z,100904.98
2019-04-29T02:20:14.333Z,100904.59
2019-04-29T02:21:18.653Z,100904.17
2019-04-29T02:22:41.553Z,100906.44
2019-04-29T02:24:04.844Z,100901.14
2019-04-29T02:25:19.906Z,100901.14
2019-04-29T02:26:23.826Z,100908.37
2019-04-29T02:27:27.996Z,100895.91
2019-04-29T02:28:31.901Z,100906.27
2019-04-29T02:29:36.193Z,100905.41
2019-04-29T02:30:48.403Z,100905.41
2019-04-29T02:31:52.640Z,100902.70
2019-04-29T02:32:57.166Z,100907.67
2019-04-29T02:34:01.079Z,100905.86
2019-04-29T02:35:05.223Z,100902.28
2019-04-29T02:36:09.395Z,100901.36
2019-04-29T02:37:15.250Z,100900.44
2019-04-29T02:38:47.475Z,100896.39
2019-04-29T02:39:57.972Z,100898.17
2019-04-29T02:41:36.370Z,100898.20
2019-04-29T02:42:50.318Z,100899.58
2019-04-29T02:43:54.767Z,100898.27
2019-04-29T02:45:03.252Z,100897.01
2019-04-29T02:46:07.194Z,100892.97
2019-04-29T02:47:11.170Z,100900.13
2019-04-29T02:48:15.586Z,100893.83
2019-04-29T02:49:20.253Z,100895.11
2019-04-29T02:50:24.962Z,100894.61
2019-04-29T02:51:47.868Z,100891.03
2019-04-29T02:52:51.763Z,100895.08
2019-04-29T02:53:55.746Z,100889.25
2019-04-29T02:55:01.693Z,100887.45
2019-04-29T02:56:05.679Z,100889.22
2019-04-29T02:57:46.782Z,100892.38
2019-04-29T02:58:58.563Z,100894.64
2019-04-29T03:00:11.873Z,100893.75
2019-04-29T03:01:33.479Z,100893.83
2019-04-29T03:02:46.304Z,100893.83
2019-04-29T03:03:57.351Z,100891.68
2019-04-29T03:05:09.616Z,100888.65
2019-04-29T03:06:14.166Z,100893.52
2019-04-29T03:07:18.202Z,100899.43
2019-04-29T03:08:22.810Z,100892.27
2019-04-29T03:09:26.808Z,100891.83
2019-04-29T03:10:30.865Z,100894.53
2019-04-29T03:11:34.979Z,100892.30
2019-04-29T03:12:39.926Z,100894.53
2019-04-29T03:13:44.522Z,100896.77
2019-04-29T03:14:48.997Z,100892.75
2019-04-29T03:15:53.357Z,100891.83
2019-04-29T03:16:57.552Z,100893.18
2019-04-29T03:18:01.613Z,100893.67
2019-04-29T03:19:10.237Z,100896.34
2019-04-29T03:20:28.677Z,100891.89
2019-04-29T03:21:40.418Z,100895.48
2019-04-29T03:22:45.293Z,100893.34
2019-04-29T03:23:49.838Z,100897.44
2019-04-29T03:24:54.004Z,100901.48
2019-04-29T03:25:58.081Z,100901.45
2019-04-29T03:27:02.269Z,100900.53
2019-04-29T03:28:06.695Z,100896.03
2019-04-29T03:29:22.419Z,100903.20
2019-04-29T03:30:26.743Z,100898.27
2019-04-29T03:31:31.131Z,100897.80
2019-04-29T03:32:35.254Z,100895.05
2019-04-29T03:33:39.494Z,100900.41
2019-04-29T03:34:43.657Z,100900.84
2019-04-29T03:35:48.325Z,100898.57
2019-04-29T03:36:52.882Z,100900.35
2019-04-29T03:37:56.808Z,100898.55
2019-04-29T03:39:01.139Z,100895.33
2019-04-29T03:40:06.423Z,100898.45
2019-04-29T03:41:10.336Z,100897.07
2019-04-29T03:42:14.589Z,100895.29
2019-04-29T03:43:19.148Z,100896.21
2019-04-29T03:44:23.119Z,100899.80
2019-04-29T03:45:27.716Z,100896.64
2019-04-29T03:46:31.782Z,100894.86
2019-04-29T03:47:35.638Z,100893.52
2019-04-29T03:48:39.881Z,100892.14
2019-04-29T03:49:44.375Z,100895.29
2019-04-29T03:50:48.389Z,100899.34
2019-04-29T03:51:52.302Z,100903.38
2019-04-29T03:52:56.792Z,100902.49
2019-04-29T03:54:00.998Z,100901.57
2019-04-29T03:55:05.210Z,100899.77
2019-04-29T03:56:09.542Z,100902.46
2019-04-29T03:57:14.726Z,100902.03
2019-04-29T03:58:18.943Z,100901.11
2019-04-29T03:59:23.050Z,100902.95
2019-04-29T04:00:27.085Z,100906.08
2019-04-29T04:01:36.758Z,100904.73
2019-04-29T04:02:47.444Z,100905.19
2019-04-29T04:03:55.804Z,100900.25
2019-04-29T04:05:18.154Z,100904.73
2019-04-29T04:06:41.429Z,100902.95
2019-04-29T04:07:50.167Z,100910.12
2019-04-29T04:09:06.133Z,100911.93
2019-04-29T04:10:03.624Z,100906.05
2019-04-29T04:11:07.880Z,100909.20
2019-04-29T04:12:11.862Z,100902.03
2019-04-29T04:13:16.447Z,100908.71
2019-04-29T04:14:20.719Z,100911.87
2019-04-29T04:15:24.823Z,100910.48
2019-04-29T04:16:46.439Z,100918.58
2019-04-29T04:18:05.071Z,100918.15
2019-04-29T04:19:09.518Z,100923.55
2019-04-29T04:20:13.775Z,100922.22
2019-04-29T04:21:17.677Z,100918.18
2019-04-29T04:22:21.775Z,100926.23
2019-04-29T04:23:25.909Z,100922.14
2019-04-29T04:24:30.643Z,100921.70
2019-04-29T04:25:34.738Z,100920.36
2019-04-29T04:26:38.811Z,100926.64
2019-04-29T04:27:42.725Z,100924.34
2019-04-29T04:28:46.857Z,100921.61
2019-04-29T04:29:50.752Z,100927.89
2019-04-29T04:30:54.970Z,100931.05
2019-04-29T04:31:59.295Z,100931.48
2019-04-29T04:33:03.467Z,100932.37
2019-04-29T04:34:07.625Z,100934.12
2019-04-29T04:35:12.347Z,100932.25
2019-04-29T04:36:16.185Z,100934.42
2019-04-29T04:37:20.012Z,100932.16
2019-04-29T04:38:23.961Z,100936.11
2019-04-29T04:39:29.649Z,100937.42
2019-04-29T04:40:38.273Z,100940.09
2019-04-29T04:41:42.353Z,100938.67
2019-04-29T04:42:46.278Z,100942.20
2019-04-29T04:43:50.623Z,100938.13
2019-04-29T04:44:54.537Z,100946.19
2019-04-29T04:45:58.445Z,100945.23
2019-04-29T04:47:02.616Z,100946.55
2019-04-29T04:48:06.942Z,100949.15
2019-04-29T04:49:11.012Z,100950.44
2019-04-29T04:50:16.352Z,100951.30
2019-04-29T04:51:20.258Z,100949.42
2019-04-29T04:52:24.766Z,100947.11
2019-04-29T04:53:28.677Z,100952.48
2019-04-29T04:54:32.602Z,100952.48
2019-04-29T04:55:38.554Z,100953.80
2019-04-29T04:56:42.823Z,100956.86
2019-04-29T04:57:47.121Z,100955.94
2019-04-29T04:58:50.949Z,100955.87
2019-04-29T04:59:55.534Z,100957.12
2019-04-29T05:00:59.519Z,100956.63
2019-04-29T05:02:03.564Z,100948.47
2019-04-29T05:03:07.847Z,100957.81
2019-04-29T05:04:11.951Z,100955.54
2019-04-29T05:05:15.930Z,100953.23
2019-04-29T05:06:19.756Z,100955.47
2019-04-29T05:07:23.773Z,100940.33
2019-04-29T05:08:27.935Z,100957.15
2019-04-29T05:09:32.058Z,100954.84
2019-04-29T05:10:35.965Z,100957.08
2019-04-29T05:11:39.802Z,100950.75
2019-04-29T05:12:44.059Z,100964.19
2019-04-29T05:13:47.883Z,100963.20
2019-04-29T05:14:52.266Z,100963.59
2019-04-29T05:15:56.289Z,100967.50
2019-04-29T05:17:00.199Z,100968.81
2019-04-29T05:18:04.261Z,100967.86
2019-04-29T05:19:08.106Z,100968.25
2019-04-29T05:20:12.327Z,100970.81
2019-04-29T05:21:16.569Z,100970.28
2019-04-29T05:22:20.422Z,100966.98
2019-04-29T05:23:24.698Z,100966.41
2019-04-29T05:24:29.208Z,100967.65
2019-04-29T05:25:34.601Z,100968.86
2019-04-29T05:26:38.924Z,100965.62
2019-04-29T05:27:43.460Z,100962.42
2019-04-29T05:28:48.288Z,100962.77
2019-04-29T05:29:52.143Z,100958.68
2019-04-29T05:30:56.380Z,100955.05
2019-04-29T05:32:00.567Z,100956.75
2019-04-29T05:33:04.488Z,100952.16
2019-04-29T05:34:08.391Z,100953.86
2019-04-29T05:35:14.535Z,100956.88
2019-04-29T05:36:34.034Z,100953.67
2019-04-29T05:38:05.152Z,100950.00
2019-04-29T05:39:31.351Z,100954.95
2019-04-29T05:40:56.723Z,100955.37
2019-04-29T05:41:59.967Z,100953.06
2019-04-29T05:43:05.147Z,100955.30
2019-04-29T05:44:19.079Z,100964.22
2019-04-29T05:45:34.572Z,100961.91
2019-04-29T05:46:57.751Z,100965.84
2019-04-29T05:48:10.141Z,100964.45
2019-04-29T05:49:16.883Z,100971.02
2019-04-29T05:50:40.647Z,100968.23
2019-04-29T05:51:57.564Z,100969.90
2019-04-29T05:53:27.049Z,100971.67
2019-04-29T05:54:33.517Z,100975.27
2019-04-29T05:55:37.956Z,100973.38
2019-04-29T05:56:41.870Z,100979.09
2019-04-29T05:57:46.374Z,100978.53
2019-04-29T05:58:50.640Z,100975.67
2019-04-29T05:59:54.715Z,100977.30
2019-04-29T06:01:02.410Z,100975.81
2019-04-29T06:02:06.581Z,100980.56
2019-04-29T06:03:11.080Z,100978.07
2019-04-29T06:04:16.202Z,100980.58
2019-04-29T06:05:20.954Z,100981.33
2019-04-29T06:06:25.022Z,100980.19
2019-04-29T06:07:29.350Z,100983.63
2019-04-29T06:08:34.589Z,100982.09
2019-04-29T06:09:39.537Z,100988.70
2019-04-29T06:10:43.778Z,100983.53
2019-04-29T06:11:47.787Z,100985.17
2019-04-29T06:12:52.119Z,100987.29
2019-04-29T06:13:56.519Z,100988.42
2019-04-29T06:15:00.766Z,100988.70
2019-04-29T06:16:04.761Z,100989.84
2019-04-29T06:17:08.902Z,100986.96
2019-04-29T06:18:12.970Z,100987.28
2019-04-29T06:19:17.308Z,100988.00
2019-04-29T06:20:22.898Z,100980.14
2019-04-29T06:21:27.213Z,100984.92
2019-04-29T06:22:31.335Z,100984.27
2019-04-29T06:23:35.512Z,100983.70
2019-04-29T06:24:41.160Z,100984.41
2019-04-29T06:25:45.337Z,100982.48
2019-04-29T06:26:49.351Z,100977.36
2019-04-29T06:27:53.195Z,100979.92
2019-04-29T06:28:57.201Z,100986.05
2019-04-29T06:30:03.117Z,100976.97
2019-04-29T06:31:07.397Z,100975.00
2019-04-29T06:32:11.566Z,100973.95
2019-04-29T06:33:15.726Z,100980.13
2019-04-29T06:34:20.538Z,100977.68
2019-04-29T06:35:24.536Z,100977.62
2019-04-29T06:36:28.782Z,100976.09
2019-04-29T06:37:33.103Z,100981.82
2019-04-29T06:38:37.027Z,100978.92
2019-04-29T06:39:41.253Z,100985.13
2019-04-29T06:40:45.168Z,100981.39
2019-04-29T06:41:49.166Z,100982.64
2019-04-29T06:42:54.857Z,100976.69
2019-04-29T06:44:00.617Z,100976.02
2019-04-29T06:45:05.183Z,100980.88
2019-04-29T06:46:09.723Z,100979.80
2019-04-29T06:47:16.712Z,100979.69
2019-04-29T06:48:19.574Z,100979.59
2019-04-29T06:49:23.505Z,100980.90
2019-04-29T06:50:27.772Z,100983.56
2019-04-29T06:51:32.138Z,100983.92
2019-04-29T06:52:36.046Z,100981.42
2019-04-29T06:53:40.501Z,100980.38
2019-04-29T06:54:45.218Z,100984.66
2019-04-29T06:55:49.828Z,100977.67
2019-04-29T06:56:54.340Z,100977.50
2019-04-29T06:57:58.550Z,100979.75
2019-04-29T06:59:02.912Z,100983.20
2019-04-29T07:00:07.369Z,100984.56
2019-04-29T07:01:11.358Z,100978.61
2019-04-29T07:02:16.117Z,100973.06
2019-04-29T07:03:20.989Z,100974.74
2019-04-29T07:04:26.495Z,100980.41
2019-04-29T07:05:30.412Z,100974.42
2019-04-29T07:06:34.551Z,100969.29
2019-04-29T07:07:38.817Z,100974.04
2019-04-29T07:08:42.958Z,100973.09
2019-04-29T07:09:47.115Z,100972.98
2019-04-29T07:10:56.021Z,100967.08
2019-04-29T07:12:01.280Z,100972.45
2019-04-29T07:13:03.611Z,100965.66
2019-04-29T07:14:07.984Z,100966.51
2019-04-29T07:15:13.886Z,100966.45
2019-04-29T07:16:21.951Z,100965.09
2019-04-29T07:17:24.117Z,100966.04
2019-04-29T07:18:28.387Z,100958.77
2019-04-29T07:19:32.903Z,100963.32
2019-04-29T07:20:38.775Z,100961.58
2019-04-29T07:21:46.924Z,100964.77
2019-04-29T07:22:48.963Z,100967.39
2019-04-29T07:23:53.241Z,100970.11
2019-04-29T07:24:57.722Z,100966.80
2019-04-29T07:26:01.902Z,100959.95
2019-04-29T07:27:06.156Z,100959.80
2019-04-29T07:28:13.797Z,100967.42
2019-04-29T07:29:16.666Z,100964.17
2019-04-29T07:30:21.312Z,100960.51
2019-04-29T07:31:28.420Z,100962.75
2019-04-29T07:32:32.508Z,100965.45
2019-04-29T07:33:36.891Z,100967.72
2019-04-29T07:34:41.296Z,100967.72
2019-04-29T07:35:47.984Z,100969.90
2019-04-29T07:36:53.144Z,100968.01
2019-04-29T07:37:56.695Z,100963.41
2019-04-29T07:39:00.857Z,100970.93
2019-04-29T07:40:08.066Z,100968.56
2019-04-29T07:41:14.318Z,100967.91
2019-04-29T07:42:16.849Z,100964.50
2019-04-29T07:43:21.271Z,100965.52
2019-04-29T07:44:32.887Z,100965.23
2019-04-29T07:45:52.085Z,100968.56
2019-04-29T07:47:00.432Z,100972.23
2019-04-29T07:48:06.422Z,100965.97
2019-04-29T07:49:12.673Z,100970.58
2019-04-29T07:50:15.518Z,100966.15
2019-04-29T07:51:20.056Z,100959.97
2019-04-29T07:52:23.891Z,100963.28
2019-04-29T07:53:36.735Z,100957.06
2019-04-29T07:54:33.989Z,100963.64
2019-04-29T07:55:38.485Z,100959.42
2019-04-29T07:56:43.718Z,100961.54
2019-04-29T07:57:51.599Z,100963.14
2019-04-29T07:58:54.172Z,100961.07
2019-04-29T07:59:58.350Z,100958.76
2019-04-29T08:01:02.633Z,100959.58
2019-04-29T08:02:06.894Z,100960.39
2019-04-29T08:03:11.101Z,100961.21
2019-04-29T08:04:15.407Z,100956.55
2019-04-29T08:05:19.715Z,100952.36
2019-04-29T08:06:23.701Z,100954.44
2019-04-29T08:07:27.784Z,100950.22
2019-04-29T08:08:33.137Z,100955.19
2019-04-29T08:09:39.854Z,100955.13
2019-04-29T08:10:54.054Z,100950.08
2019-04-29T08:11:49.660Z,100952.33
2019-04-29T08:12:55.122Z,100953.59
2019-04-29T08:14:01.006Z,100956.58
2019-04-29T08:15:07.843Z,100955.55
2019-04-29T08:16:12.678Z,100954.02
2019-04-29T08:17:17.544Z,100944.28
2019-04-29T08:18:21.758Z,100943.56
2019-04-29T08:19:29.318Z,100951.11
2019-04-29T08:20:35.460Z,100948.63
2019-04-29T08:21:37.938Z,100945.58
2019-04-29T08:22:41.846Z,100952.11
2019-04-29T08:23:46.267Z,100946.41
2019-04-29T08:24:52.131Z,100946.56
2019-04-29T08:25:57.495Z,100948.19
2019-04-29T08:27:02.478Z,100950.26
2019-04-29T08:28:06.920Z,100944.26
2019-04-29T08:29:11.169Z,100945.87
2019-04-29T08:30:18.232Z,100946.52
2019-04-29T08:31:22.257Z,100945.30
2019-04-29T08:32:26.587Z,100949.64
2019-04-29T08:33:30.597Z,100946.19
2019-04-29T08:34:34.716Z,100950.94
2019-04-29T08:35:38.802Z,100944.34
2019-04-29T08:36:42.652Z,100945.08
2019-04-29T08:37:46.755Z,100944.34
2019-04-29T08:38:50.677Z,100942.78
2019-04-29T08:40:14.818Z,100940.67
2019-04-29T08:41:00.837Z,100942.10
2019-04-29T08:42:09.130Z,100944.68
2019-04-29T08:43:27.413Z,100943.20
2019-04-29T08:44:54.790Z,100947.47
2019-04-29T08:46:00.649Z,100949.05
2019-04-29T08:47:16.273Z,100947.19
2019-04-29T08:48:20.548Z,100946.28
2019-04-29T08:49:24.406Z,100941.28
2019-04-29T08:50:28.647Z,100946.31
2019-04-29T08:51:32.628Z,100945.59
2019-04-29T08:52:36.458Z,100941.14
2019-04-29T08:53:40.619Z,100943.67
2019-04-29T08:54:44.686Z,100946.24
2019-04-29T08:55:48.871Z,100945.77
2019-04-29T08:57:02.838Z,100946.65
2019-04-29T08:57:59.167Z,100944.88
2019-04-29T08:59:03.872Z,100945.84
2019-04-29T09:00:08.940Z,100948.66
2019-04-29T09:01:13.565Z,100942.31
2019-04-29T09:02:33.094Z,100940.66
2019-04-29T09:03:24.424Z,100942.02
2019-04-29T09:04:33.370Z,100946.52
2019-04-29T09:05:34.504Z,100944.88
2019-04-29T09:06:38.356Z,100940.54
2019-04-29T09:07:42.542Z,100943.00
2019-04-29T09:08:54.526Z,100938.37
2019-04-29T09:09:56.157Z,100935.16
2019-04-29T09:10:57.768Z,100929.50
2019-04-29T09:12:02.283Z,100927.41
2019-04-29T09:13:06.454Z,100926.75
2019-04-29T09:14:12.945Z,100934.13
2019-04-29T09:15:17.094Z,100924.28
2019-04-29T09:16:21.632Z,100924.80
2019-04-29T09:17:26.075Z,100926.40
2019-04-29T09:18:29.993Z,100926.59
2019-04-29T09:19:34.004Z,100920.47
2019-04-29T09:20:38.005Z,100924.77
2019-04-29T09:21:44.517Z,100926.84
2019-04-29T09:22:53.916Z,100924.80
2019-04-29T09:23:57.874Z,100921.23
2019-04-29T09:25:26.174Z,100924.81
2019-04-29T09:26:51.688Z,100919.64
2019-04-29T09:27:56.571Z,100917.45
2019-04-29T09:29:19.768Z,100918.22
2019-04-29T09:30:23.693Z,100917.34
2019-04-29T09:31:27.799Z,100920.75
2019-04-29T09:32:33.963Z,100919.78
2019-04-29T09:33:37.994Z,100917.36
2019-04-29T09:34:41.997Z,100919.13
2019-04-29T09:35:46.584Z,100918.75
2019-04-29T09:36:50.497Z,100919.44
2019-04-29T09:37:58.418Z,100919.47
2019-04-29T09:39:00.753Z,100923.66
2019-04-29T09:40:05.761Z,100914.06
2019-04-29T09:41:35.251Z,100916.48
2019-04-29T09:42:50.297Z,100912.47
2019-04-29T09:44:14.566Z,100917.36
2019-04-29T09:45:58.677Z,100920.20
2019-04-29T09:47:04.185Z,100921.11
2019-04-29T09:48:06.844Z,100914.50
2019-04-29T09:49:10.867Z,100920.17
2019-04-29T09:50:15.768Z,100916.69
2019-04-29T09:51:22.573Z,100914.84
2019-04-29T09:52:26.275Z,100912.90
2019-04-29T09:53:30.796Z,100911.72
2019-04-29T09:54:35.371Z,100915.04
2019-04-29T09:55:41.156Z,100919.19
2019-04-29T09:56:45.288Z,100915.66
2019-04-29T09:57:49.613Z,100908.86
2019-04-29T09:59:12.640Z,100909.84
2019-04-29T10:00:25.160Z,100904.36
2019-04-29T10:01:40.396Z,100914.25
2019-04-29T10:02:51.829Z,100904.08
2019-04-29T10:04:10.179Z,100901.64
2019-04-29T10:05:36.344Z,100909.65
2019-04-29T10:06:41.613Z,100905.84
2019-04-29T10:07:45.558Z,100904.97
2019-04-29T10:08:49.896Z,100896.55
2019-04-29T10:09:57.294Z,100904.76
2019-04-29T10:10:59.892Z,100893.05
2019-04-29T10:12:04.063Z,100901.14
2019-04-29T10:13:08.484Z,100898.13
2019-04-29T10:14:12.743Z,100900.47
2019-04-29T10:15:18.573Z,100897.33
2019-04-29T10:16:36.049Z,100897.80
2019-04-29T10:17:55.700Z,100893.72
2019-04-29T10:19:23.276Z,100894.59
2019-04-29T10:20:35.151Z,100894.75
2019-04-29T10:21:39.339Z,100898.47
2019-04-29T10:22:43.648Z,100895.46
2019-04-29T10:23:47.636Z,100893.21
2019-04-29T10:24:52.166Z,100890.95
2019-04-29T10:25:56.792Z,100892.11
2019-04-29T10:27:01.292Z,100887.91
2019-04-29T10:28:05.808Z,100885.46
2019-04-29T10:29:18.428Z,100879.19
2019-04-29T10:30:21.954Z,100892.70
2019-04-29T10:31:26.414Z,100882.62
2019-04-29T10:32:30.330Z,100883.19
2019-04-29T10:33:34.556Z,100879.06
2019-04-29T10:34:38.539Z,100879.28
2019-04-29T10:35:45.191Z,100881.23
2019-04-29T10:36:52.247Z,100878.30
2019-04-29T10:37:53.934Z,100874.29
2019-04-29T10:39:01.703Z,100869.30
2019-04-29T10:40:35.050Z,100872.23
2019-04-29T10:41:41.806Z,100870.45
2019-04-29T10:42:52.520Z,100865.80
2019-04-29T10:44:14.520Z,100865.59
2019-04-29T10:45:40.690Z,100857.19
2019-04-29T10:47:04.011Z,100861.98
2019-04-29T10:48:17.256Z,100848.52
2019-04-29T10:49:28.894Z,100847.52
2019-04-29T10:50:36.074Z,100857.70
2019-04-29T10:51:40.379Z,100848.70
2019-04-29T10:52:44.706Z,100843.61
2019-04-29T10:53:51.050Z,100836.17
2019-04-29T10:54:56.687Z,100839.30
2019-04-29T10:56:05.377Z,100840.18
2019-04-29T10:57:10.412Z,100841.42
2019-04-29T10:58:12.467Z,100834.02
2019-04-29T10:59:16.452Z,100837.34
2019-04-29T11:00:39.804Z,100825.69
2019-04-29T11:02:35.166Z,100828.05
2019-04-29T11:03:39.748Z,100828.92
2019-04-29T11:04:44.532Z,100824.25
2019-04-29T11:06:00.639Z,100826.83
2019-04-29T11:06:57.394Z,100823.20
2019-04-29T11:08:23.709Z,100823.86
2019-04-29T11:09:53.127Z,100827.78
2019-04-29T11:11:02.471Z,100823.87
2019-04-29T11:12:08.855Z,100818.55
2019-04-29T11:13:12.997Z,100813.56
2019-04-29T11:14:17.248Z,100824.23
2019-04-29T11:15:23.418Z,100819.49
2019-04-29T11:16:45.355Z,100815.97
2019-04-29T11:17:35.127Z,100821.90
2019-04-29T11:18:39.362Z,100813.14
2019-04-29T11:19:43.442Z,100808.00
2019-04-29T11:20:48.782Z,100810.95
2019-04-29T11:21:52.986Z,100807.84
2019-04-29T11:23:09.107Z,100803.50
2019-04-29T11:24:19.007Z,100805.55
2019-04-29T11:25:34.191Z,100809.61
2019-04-29T11:26:47.189Z,100803.69
2019-04-29T11:27:55.840Z,100800.30
2019-04-29T11:28:59.028Z,100806.13
2019-04-29T11:30:04.955Z,100803.28
2019-04-29T11:31:13.581Z,100800.30
2019-04-29T11:32:24.843Z,100801.46
2019-04-29T11:33:40.011Z,100795.38
2019-04-29T11:34:56.252Z,100798.38
2019-04-29T11:36:08.854Z,100795.52
2019-04-29T11:37:17.901Z,100794.54
2019-04-29T11:38:21.031Z,100804.33
2019-04-29T11:39:24.939Z,100796.59
2019-04-29T11:40:42.743Z,100790.11
2019-04-29T11:41:34.785Z,100794.90
2019-04-29T11:42:41.835Z,100789.69
2019-04-29T11:43:46.772Z,100789.23
2019-04-29T11:44:52.172Z,100792.16
2019-04-29T11:45:56.462Z,100788.57
2019-04-29T11:47:01.204Z,100782.37
2019-04-29T11:48:05.669Z,100790.75
2019-04-29T11:49:09.654Z,100784.98
2019-04-29T11:50:28.592Z,100789.23
2019-04-29T11:52:05.300Z,100779.38
2019-04-29T11:52:46.660Z,100785.38
2019-04-29T11:53:50.643Z,100781.98
2019-04-29T11:54:54.863Z,100783.86
2019-04-29T11:55:59.479Z,100777.73
2019-04-29T11:57:03.464Z,100778.89
2019-04-29T11:58:14.091Z,100775.13
2019-04-29T11:59:49.282Z,100778.61
2019-04-29T12:01:03.877Z,100777.20
2019-04-29T12:02:16.623Z,100781.56
2019-04-29T12:03:21.368Z,100783.22
2019-04-29T12:04:42.180Z,100778.25
2019-04-29T12:05:49.663Z,100787.43
2019-04-29T12:06:56.246Z,100779.84
2019-04-29T12:08:03.010Z,100778.04
2019-04-29T12:09:07.126Z,100775.70
2019-04-29T12:10:11.491Z,100766.11
2019-04-29T12:11:16.312Z,100771.63
2019-04-29T12:12:20.947Z,100767.01
2019-04-29T12:13:32.098Z,100765.52
2019-04-29T12:14:54.563Z,100767.39
2019-04-29T12:16:19.812Z,100762.39
2019-04-29T12:17:31.104Z,100767.16
2019-04-29T12:18:43.241Z,100766.13
2019-04-29T12:19:48.414Z,100768.38
2019-04-29T12:21:17.649Z,100765.28
2019-04-29T12:22:30.224Z,100771.91
2019-04-29T12:23:27.543Z,100757.09
2019-04-29T12:24:32.042Z,100727.63
2019-04-29T12:25:36.484Z,100756.88
2019-04-29T12:26:44.281Z,100752.88
2019-04-29T12:27:46.285Z,100754.77
2019-04-29T12:28:50.460Z,100743.13
2019-04-29T12:29:59.155Z,100743.02
2019-04-29T12:31:05.651Z,100741.88
2019-04-29T12:32:37.526Z,100740.48
2019-04-29T12:33:46.834Z,100743.31
2019-04-29T12:35:07.103Z,100739.88
2019-04-29T12:36:12.225Z,100743.29
2019-04-29T12:37:45.319Z,100733.20
2019-04-29T12:39:43.056Z,100736.23
2019-04-29T12:40:55.119Z,100725.66
2019-04-29T12:42:35.632Z,100728.13
2019-04-29T12:44:17.610Z,100731.47
2019-04-29T12:45:26.179Z,100731.17
2019-04-29T12:46:55.244Z,100723.19
2019-04-29T12:47:59.270Z,100713.95
2019-04-29T12:49:07.609Z,100712.72